Time;durP1;ratioP1;P1;durP2;ratioP2;P2;SDS_P1;SDS_P2;PMS_P1;PMS_P2;Temp;Humidity;BMP_temperature;BMP_pressure;BME280_temperature;BME280_humidity;BME280_pressure;Samples;Min_cycle;Max_cycle;Signal;HPM_P1;HPM_P2
2022/12/16 00:00:08;;;;;;;13.80;8.60;;;-2.30;99.90;;;-2.57;82.68;99674.94;5026181;28;20189;-65
2022/12/16 00:02:35;;;;;;;14.10;9.30;;;-2.20;99.90;;;-2.71;84.14;99660.13;5021041;28;20634;-64
2022/12/16 00:05:03;;;;;;;11.48;7.88;;;-2.30;99.90;;;-2.64;83.67;99659.00;5037934;28;20204;-65
2022/12/16 00:07:33;;;;;;;12.77;9.13;;;-2.30;99.90;;;-2.67;83.63;99660.84;5022955;28;20223;-64
2022/12/16 00:10:00;;;;;;;17.00;9.50;;;-2.30;99.90;;;-2.52;82.81;99662.88;5018646;28;20628;-65
2022/12/16 00:12:27;;;;;;;13.52;7.40;;;-2.20;99.90;;;-2.73;83.91;99664.44;5031421;28;20207;-62
2022/12/16 00:14:54;;;;;;;8.48;4.47;;;-2.30;99.90;;;-2.58;82.66;99670.75;5043255;28;20205;-64
2022/12/16 00:17:21;;;;;;;10.77;6.50;;;-2.30;99.90;;;-2.71;83.48;99672.03;5036439;28;20227;-62
2022/12/16 00:19:47;;;;;;;14.50;8.32;;;-2.30;99.90;;;-2.64;83.40;99676.06;5035990;28;20221;-64
2022/12/16 00:22:14;;;;;;;11.30;7.13;;;-2.30;99.90;;;-2.62;82.92;99667.44;5012516;28;20227;-63
2022/12/16 00:24:41;;;;;;;15.88;7.25;;;-2.30;99.90;;;-2.67;83.52;99682.09;5035808;28;20252;-64
2022/12/16 00:27:08;;;;;;;14.13;9.70;;;-2.30;99.90;;;-2.54;83.19;99687.63;5051192;28;20221;-64
2022/12/16 00:29:35;;;;;;;9.70;4.80;;;-2.30;99.90;;;-2.52;83.00;99690.97;5017713;28;20640;-64
2022/12/16 00:32:02;;;;;;;15.20;7.13;;;-2.20;99.90;;;-2.59;83.07;99689.50;5031666;28;20348;-64
2022/12/16 00:34:29;;;;;;;14.98;7.70;;;-2.20;99.90;;;-2.52;83.02;99701.19;5045832;28;20215;-64
2022/12/16 00:36:56;;;;;;;14.32;7.95;;;-2.20;99.90;;;-2.56;83.31;99692.81;5051557;28;20248;-64
2022/12/16 00:39:23;;;;;;;11.85;7.50;;;-2.30;99.90;;;-2.59;83.09;99698.00;5036731;28;20206;-64
2022/12/16 00:41:50;;;;;;;12.65;9.80;;;-2.30;99.90;;;-2.71;83.98;99695.88;5014899;28;20214;-64
2022/12/16 00:44:17;;;;;;;13.57;7.95;;;-2.20;99.90;;;-2.67;84.22;99694.03;5037057;28;20289;-65
2022/12/16 00:46:44;;;;;;;13.70;6.85;;;-2.30;99.90;;;-2.65;84.08;99692.25;5023548;28;20229;-65
2022/12/16 00:49:11;;;;;;;14.25;9.45;;;-2.30;99.90;;;-2.60;84.17;99698.88;5034552;28;20205;-64
2022/12/16 00:51:38;;;;;;;12.13;9.65;;;-2.30;99.90;;;-2.65;84.53;99702.47;5030982;28;20195;-63
2022/12/16 00:54:05;;;;;;;7.25;4.50;;;-2.20;99.90;;;-2.56;83.85;99712.38;5016272;28;20236;-66
2022/12/16 00:56:32;;;;;;;13.38;8.32;;;-2.20;99.90;;;-2.63;84.63;99724.53;5031844;28;20226;-64
2022/12/16 00:58:58;;;;;;;12.70;7.40;;;-2.20;99.90;;;-2.54;83.92;99719.13;5014004;28;20210;-64
2022/12/16 01:01:25;;;;;;;12.68;8.52;;;-2.20;99.90;;;-2.67;84.54;99722.13;5004691;28;20209;-65
2022/12/16 01:03:56;;;;;;;10.15;5.85;;;-2.30;99.90;;;-2.65;84.40;99718.63;5011306;28;20679;-64
2022/12/16 01:06:23;;;;;;;10.48;7.28;;;-2.30;99.90;;;-2.68;84.67;99721.28;5029006;28;20274;-64
2022/12/16 01:08:50;;;;;;;11.90;9.95;;;-2.30;99.90;;;-2.83;85.34;99713.31;5039808;28;20216;-64
2022/12/16 01:11:18;;;;;;;14.05;5.63;;;-2.40;99.90;;;-2.70;84.77;99724.75;5017118;28;20741;-65
2022/12/16 01:13:50;;;;;;;12.43;5.95;;;-2.40;99.90;;;-2.69;84.33;99722.19;5023975;28;20200;-65
2022/12/16 01:16:18;;;;;;;12.45;8.15;;;-2.30;99.90;;;-2.65;84.15;99718.63;5017161;28;20576;-64
2022/12/16 01:18:45;;;;;;;12.60;6.50;;;-2.30;99.90;;;-2.70;84.61;99737.53;5035811;28;20205;-64
2022/12/16 01:21:14;;;;;;;10.10;7.32;;;-2.30;99.90;;;-2.81;84.57;99744.72;5045981;28;20205;-65
2022/12/16 01:23:41;;;;;;;11.13;6.85;;;-2.40;99.90;;;-2.78;84.84;99739.50;5011130;28;20259;-64
2022/12/16 01:26:16;;;;;;;8.07;5.13;;;-2.40;99.90;;;-2.86;85.03;99741.47;5023294;28;20221;-65
2022/12/16 01:28:44;;;;;;;5.70;4.22;;;-2.40;99.90;;;-2.70;83.84;99734.97;5001511;28;20201;-64
2022/12/16 01:31:11;;;;;;;11.13;7.13;;;-2.40;99.90;;;-2.79;84.87;99740.41;5013791;28;20599;-65
2022/12/16 01:33:39;;;;;;;10.32;6.05;;;-2.40;99.90;;;-2.70;84.40;99742.63;5020082;28;20207;-64
2022/12/16 01:36:07;;;;;;;11.40;7.25;;;-2.40;99.90;;;-2.73;84.24;99732.53;4977597;28;20240;-65
2022/12/16 01:38:35;;;;;;;13.52;8.48;;;-2.30;99.90;;;-2.72;84.19;99744.41;4997837;28;20196;-64
2022/12/16 01:41:03;;;;;;;5.40;3.58;;;-2.40;99.90;;;-2.70;84.20;99752.84;5029736;28;20258;-61
2022/12/16 01:43:35;;;;;;;11.85;7.57;;;-2.40;99.90;;;-2.63;83.46;99742.41;5020617;28;20208;-64
2022/12/16 01:46:11;;;;;;;11.13;8.05;;;-2.30;99.90;;;-2.65;83.44;99753.53;5013310;28;20226;-63
2022/12/16 01:49:03;;;;;;;13.48;7.05;;;-2.30;99.90;;;-2.73;83.80;99752.97;5030605;28;20243;-64
2022/12/16 01:51:34;;;;;;;11.68;7.15;;;-2.30;99.90;;;-2.68;83.03;99748.53;5029915;28;20207;-64
2022/12/16 01:54:10;;;;;;;11.48;7.40;;;-2.30;99.90;;;-2.77;84.42;99746.28;5013824;28;20204;-64
2022/12/16 01:56:48;;;;;;;10.95;6.45;;;-2.40;99.90;;;-2.79;84.45;99742.94;5007055;28;20282;-64
2022/12/16 01:59:17;;;;;;;13.57;6.55;;;-2.40;99.90;;;-2.70;83.96;99733.25;5018805;28;20200;-64
2022/12/16 02:01:44;;;;;;;13.65;6.60;;;-2.40;99.90;;;-2.82;84.05;99717.50;5007173;28;20614;-64
2022/12/16 02:04:12;;;;;;;9.77;5.80;;;-2.40;99.90;;;-2.92;84.74;99736.56;5030652;28;20199;-62
2022/12/16 02:06:39;;;;;;;9.25;5.82;;;-2.50;99.90;;;-2.99;85.14;99746.13;5025224;28;20275;-64
2022/12/16 02:09:10;;;;;;;11.55;6.57;;;-2.50;99.90;;;-2.88;84.62;99743.22;5008035;28;20205;-64
2022/12/16 02:12:06;;;;;;;11.32;5.70;;;-2.50;99.90;;;-2.84;84.39;99755.00;5021772;28;20205;-64
2022/12/16 02:14:50;;;;;;;4.60;2.45;;;-2.50;99.90;;;-2.86;84.58;99747.41;5048090;28;20203;-63
2022/12/16 02:17:23;;;;;;;7.82;5.28;;;-2.50;99.90;;;-2.85;84.55;99748.22;5032663;28;20232;-64
2022/12/16 02:20:26;;;;;;;9.57;5.90;;;-2.50;99.90;;;-2.73;84.80;99745.28;5035216;28;20688;-64
2022/12/16 02:23:49;;;;;;;7.38;4.50;;;-2.50;99.90;;;-3.00;85.08;99734.22;5027632;28;20200;-64
2022/12/16 02:27:04;;;;;;;13.27;7.30;;;-2.50;99.90;;;-2.88;85.44;99730.47;4957713;28;20607;-65
2022/12/16 02:29:55;;;;;;;6.70;5.35;;;-2.50;99.90;;;-2.99;84.87;99735.91;5024442;28;20257;-65
2022/12/16 02:32:39;;;;;;;12.88;8.00;;;-2.60;99.90;;;-2.91;85.54;99728.00;5030675;28;20554;-64
2022/12/16 02:35:14;;;;;;;10.98;5.40;;;-2.60;99.90;;;-2.86;84.87;99729.53;5032107;28;20205;-66
2022/12/16 02:37:53;;;;;;;9.82;6.10;;;-2.60;99.90;;;-2.94;85.31;99738.31;5041548;28;20236;-65
2022/12/16 02:40:25;;;;;;;10.98;6.85;;;-2.60;99.90;;;-3.10;85.65;99732.00;4983160;28;20250;-64
2022/12/16 02:43:06;;;;;;;8.90;5.70;;;-2.60;99.90;;;-3.12;85.79;99742.28;4997610;28;20223;-66
2022/12/16 02:45:35;;;;;;;9.95;6.80;;;-2.70;99.90;;;-3.02;85.98;99738.53;5012600;28;20202;-64
2022/12/16 02:48:02;;;;;;;13.02;7.57;;;-2.70;99.90;;;-3.06;86.28;99736.97;5043308;23;20267;-65
2022/12/16 02:50:38;;;;;;;9.57;5.78;;;-2.70;99.90;;;-3.07;85.80;99742.97;5032537;28;20215;-67
2022/12/16 02:53:07;;;;;;;9.15;6.25;;;-2.70;99.90;;;-2.97;85.97;99753.72;5030106;28;20736;-65
2022/12/16 02:56:13;;;;;;;10.45;5.60;;;-2.70;99.90;;;-2.92;85.50;99751.88;5002592;28;20205;-66
2022/12/16 02:59:14;;;;;;;9.35;5.93;;;-2.70;99.90;;;-2.95;85.26;99751.94;5001534;28;20196;-65
2022/12/16 03:01:59;;;;;;;9.55;3.60;;;-2.70;99.90;;;-2.95;85.06;99755.34;4929129;28;20200;-66
2022/12/16 03:04:54;;;;;;;9.48;4.70;;;-2.60;99.90;;;-3.04;85.70;99757.34;4982505;28;20664;-65
2022/12/16 03:07:25;;;;;;;7.90;4.20;;;-2.70;99.90;;;-3.10;85.39;99757.53;5015801;28;20888;-68
2022/12/16 03:09:54;;;;;;;9.85;5.80;;;-2.70;99.90;;;-3.05;85.58;99765.88;4983740;28;20266;-65
2022/12/16 03:12:22;;;;;;;8.52;5.82;;;-2.70;99.90;;;-3.13;85.67;99763.53;5007384;28;20197;-67
2022/12/16 03:14:52;;;;;;;9.23;5.10;;;-2.70;99.90;;;-3.18;85.73;99766.28;4979314;28;20203;-65
2022/12/16 03:17:22;;;;;;;7.43;4.82;;;-2.80;99.90;;;-3.11;85.71;99761.81;4984100;28;20221;-65
2022/12/16 03:20:05;;;;;;;10.75;5.63;;;-2.80;99.90;;;-3.00;85.64;99764.03;4977580;28;20207;-67
2022/12/16 03:22:35;;;;;;;8.65;4.38;;;-2.70;99.90;;;-3.13;85.77;99760.19;4996496;28;20257;-65
2022/12/16 03:25:05;;;;;;;12.90;7.10;;;-2.80;99.90;;;-2.95;85.49;99764.72;4995010;28;20202;-65
2022/12/16 03:27:55;;;;;;;6.95;4.28;;;-2.70;99.90;;;-3.18;85.91;99770.53;4981201;28;20227;-66
2022/12/16 03:30:33;;;;;;;9.95;5.35;;;-2.80;99.90;;;-3.08;85.31;99760.88;4997974;28;20200;-66
2022/12/16 03:33:08;;;;;;;4.00;3.00;;;-2.80;99.90;;;-3.05;85.94;99768.44;4998629;28;20224;-66
2022/12/16 03:35:42;;;;;;;11.65;5.60;;;-2.80;99.90;;;-3.20;86.49;99765.47;4981244;28;20885;-66
2022/12/16 03:38:11;;;;;;;11.02;6.70;;;-2.80;99.90;;;-3.31;87.52;99764.97;4992170;28;20281;-65
2022/12/16 03:40:41;;;;;;;6.10;4.60;;;-2.80;99.90;;;-3.26;86.53;99773.28;4978130;28;20215;-65
2022/12/16 03:43:11;;;;;;;6.15;3.63;;;-2.90;99.90;;;-3.27;87.23;99776.72;4995282;28;20260;-65
2022/12/16 03:45:41;;;;;;;7.80;5.22;;;-2.90;99.90;;;-3.24;86.88;99786.03;4977965;28;20198;-65
2022/12/16 03:48:11;;;;;;;10.68;5.93;;;-2.90;99.90;;;-3.25;86.78;99786.88;4996395;28;20298;-66
2022/12/16 03:50:39;;;;;;;10.38;6.72;;;-2.90;99.90;;;-3.29;86.96;99793.81;4995562;28;20205;-66
2022/12/16 03:53:07;;;;;;;8.85;4.40;;;-2.80;99.90;;;-3.32;87.41;99800.69;4993726;28;20216;-66
2022/12/16 03:55:34;;;;;;;8.65;5.00;;;-2.90;99.90;;;-3.27;87.22;99801.41;4994995;28;20209;-66
2022/12/16 03:58:01;;;;;;;8.43;4.20;;;-2.90;99.90;;;-3.26;86.79;99808.19;4993577;28;20277;-66
2022/12/16 04:00:28;;;;;;;8.45;5.07;;;-2.90;99.90;;;-3.26;87.56;99803.09;4995315;28;20202;-66
2022/12/16 04:02:55;;;;;;;6.70;4.60;;;-2.90;99.90;;;-3.16;86.73;99815.53;4995452;28;20204;-66
2022/12/16 04:05:22;;;;;;;9.70;6.32;;;-2.80;99.90;;;-3.28;86.59;99813.31;4999848;28;20671;-66
2022/12/16 04:07:50;;;;;;;10.70;5.82;;;-2.90;99.90;;;-3.35;88.06;99821.19;5003232;28;20280;-67
2022/12/16 04:24:17;;;;;;;11.10;5.70;;;-2.90;99.90;;;-3.29;87.26;99821.88;4999784;28;20253;-66
2022/12/16 04:24:25;;;;;;;8.98;6.05;;;-2.90;99.90;;;-3.16;85.71;99832.53;4982990;28;20198;-68
2022/12/16 04:34:24;;;;;;;11.02;5.30;;;-2.90;99.90;;;-3.38;85.95;99844.22;4995609;28;20222;-67
